sensor_id;sensor_type;location;lat;lon;timestamp;P1;durP1;ratioP1;P2;durP2;ratioP2
51654;SDS011;37732;53.106;7.030;2023-08-06T00:00:27;10.77;;;9.63;;
51654;SDS011;37732;53.106;7.030;2023-08-06T00:02:54;11.13;;;9.82;;
51654;SDS011;37732;53.106;7.030;2023-08-06T00:05:20;14.05;;;11.90;;
51654;SDS011;37732;53.106;7.030;2023-08-06T00:07:48;12.02;;;10.73;;
51654;SDS011;37732;53.106;7.030;2023-08-06T00:10:15;12.02;;;10.80;;
51654;SDS011;37732;53.106;7.030;2023-08-06T00:12:41;13.57;;;12.20;;
51654;SDS011;37732;53.106;7.030;2023-08-06T00:15:09;14.68;;;12.77;;
51654;SDS011;37732;53.106;7.030;2023-08-06T00:17:35;11.63;;;10.43;;
51654;SDS011;37732;53.106;7.030;2023-08-06T00:20:02;13.77;;;9.82;;
51654;SDS011;37732;53.106;7.030;2023-08-06T00:22:35;14.07;;;12.65;;
51654;SDS011;37732;53.106;7.030;2023-08-06T00:25:03;15.10;;;13.57;;
51654;SDS011;37732;53.106;7.030;2023-08-06T00:27:30;13.70;;;12.40;;
51654;SDS011;37732;53.106;7.030;2023-08-06T00:29:57;18.08;;;16.27;;
51654;SDS011;37732;53.106;7.030;2023-08-06T00:32:24;15.15;;;12.95;;
51654;SDS011;37732;53.106;7.030;2023-08-06T00:34:50;15.95;;;14.35;;
51654;SDS011;37732;53.106;7.030;2023-08-06T00:37:16;18.48;;;15.85;;
51654;SDS011;37732;53.106;7.030;2023-08-06T00:39:47;14.90;;;13.50;;
51654;SDS011;37732;53.106;7.030;2023-08-06T00:42:15;15.40;;;13.82;;
51654;SDS011;37732;53.106;7.030;2023-08-06T00:44:48;16.20;;;14.60;;
51654;SDS011;37732;53.106;7.030;2023-08-06T00:47:15;17.27;;;15.57;;
51654;SDS011;37732;53.106;7.030;2023-08-06T00:49:41;17.60;;;16.00;;
51654;SDS011;37732;53.106;7.030;2023-08-06T00:52:08;19.08;;;17.27;;
51654;SDS011;37732;53.106;7.030;2023-08-06T00:54:35;20.17;;;18.08;;
51654;SDS011;37732;53.106;7.030;2023-08-06T00:57:01;24.73;;;22.23;;
51654;SDS011;37732;53.106;7.030;2023-08-06T00:59:31;25.90;;;22.27;;
51654;SDS011;37732;53.106;7.030;2023-08-06T01:01:58;20.67;;;18.45;;
51654;SDS011;37732;53.106;7.030;2023-08-06T01:04:27;19.05;;;17.08;;
51654;SDS011;37732;53.106;7.030;2023-08-06T01:12:06;19.00;;;17.20;;
51654;SDS011;37732;53.106;7.030;2023-08-06T01:14:46;19.85;;;17.95;;
51654;SDS011;37732;53.106;7.030;2023-08-06T01:17:15;19.58;;;17.77;;
51654;SDS011;37732;53.106;7.030;2023-08-06T01:19:42;18.88;;;17.17;;
51654;SDS011;37732;53.106;7.030;2023-08-06T01:22:12;20.25;;;18.25;;
51654;SDS011;37732;53.106;7.030;2023-08-06T01:24:38;22.67;;;20.40;;
51654;SDS011;37732;53.106;7.030;2023-08-06T01:27:10;19.02;;;17.33;;
51654;SDS011;37732;53.106;7.030;2023-08-06T01:29:43;17.88;;;16.20;;
51654;SDS011;37732;53.106;7.030;2023-08-06T01:34:37;18.65;;;16.85;;
51654;SDS011;37732;53.106;7.030;2023-08-06T01:37:05;17.38;;;15.65;;
51654;SDS011;37732;53.106;7.030;2023-08-06T01:39:34;18.80;;;17.10;;
51654;SDS011;37732;53.106;7.030;2023-08-06T01:42:00;17.58;;;15.40;;
51654;SDS011;37732;53.106;7.030;2023-08-06T01:44:27;16.95;;;15.25;;
51654;SDS011;37732;53.106;7.030;2023-08-06T01:46:53;15.85;;;14.35;;
51654;SDS011;37732;53.106;7.030;2023-08-06T01:49:20;16.92;;;15.23;;
51654;SDS011;37732;53.106;7.030;2023-08-06T01:51:47;15.32;;;13.82;;
51654;SDS011;37732;53.106;7.030;2023-08-06T01:54:14;14.20;;;12.80;;
51654;SDS011;37732;53.106;7.030;2023-08-06T01:56:40;17.17;;;15.20;;
51654;SDS011;37732;53.106;7.030;2023-08-06T01:59:06;14.57;;;12.52;;
51654;SDS011;37732;53.106;7.030;2023-08-06T02:01:33;16.08;;;14.38;;
51654;SDS011;37732;53.106;7.030;2023-08-06T02:04:00;15.55;;;13.32;;
51654;SDS011;37732;53.106;7.030;2023-08-06T02:06:26;15.20;;;13.60;;
51654;SDS011;37732;53.106;7.030;2023-08-06T02:08:55;13.30;;;11.93;;
51654;SDS011;37732;53.106;7.030;2023-08-06T02:11:22;12.90;;;11.55;;
51654;SDS011;37732;53.106;7.030;2023-08-06T02:13:48;14.20;;;12.30;;
51654;SDS011;37732;53.106;7.030;2023-08-06T02:16:15;15.32;;;13.60;;
51654;SDS011;37732;53.106;7.030;2023-08-06T02:18:42;13.63;;;12.23;;
51654;SDS011;37732;53.106;7.030;2023-08-06T02:21:08;13.77;;;12.43;;
51654;SDS011;37732;53.106;7.030;2023-08-06T02:23:37;14.48;;;12.98;;
51654;SDS011;37732;53.106;7.030;2023-08-06T02:26:04;14.27;;;12.73;;
51654;SDS011;37732;53.106;7.030;2023-08-06T02:28:31;13.63;;;12.32;;
51654;SDS011;37732;53.106;7.030;2023-08-06T02:30:58;12.52;;;11.23;;
51654;SDS011;37732;53.106;7.030;2023-08-06T02:33:25;12.85;;;11.55;;
51654;SDS011;37732;53.106;7.030;2023-08-06T02:35:58;15.45;;;13.85;;
51654;SDS011;37732;53.106;7.030;2023-08-06T02:38:26;12.65;;;11.35;;
51654;SDS011;37732;53.106;7.030;2023-08-06T02:40:52;14.82;;;12.15;;
51654;SDS011;37732;53.106;7.030;2023-08-06T02:43:19;13.30;;;11.90;;
51654;SDS011;37732;53.106;7.030;2023-08-06T02:45:46;12.13;;;10.93;;
51654;SDS011;37732;53.106;7.030;2023-08-06T02:48:14;13.95;;;12.40;;
51654;SDS011;37732;53.106;7.030;2023-08-06T02:50:41;13.32;;;11.52;;
51654;SDS011;37732;53.106;7.030;2023-08-06T02:53:08;15.07;;;13.63;;
51654;SDS011;37732;53.106;7.030;2023-08-06T02:55:35;13.10;;;11.73;;
51654;SDS011;37732;53.106;7.030;2023-08-06T02:58:02;11.73;;;10.63;;
51654;SDS011;37732;53.106;7.030;2023-08-06T03:00:28;13.00;;;11.63;;
51654;SDS011;37732;53.106;7.030;2023-08-06T03:02:56;14.02;;;12.52;;
51654;SDS011;37732;53.106;7.030;2023-08-06T03:05:23;11.45;;;10.35;;
51654;SDS011;37732;53.106;7.030;2023-08-06T03:07:51;17.17;;;13.25;;
51654;SDS011;37732;53.106;7.030;2023-08-06T03:10:18;14.55;;;13.13;;
51654;SDS011;37732;53.106;7.030;2023-08-06T03:12:46;13.05;;;11.63;;
51654;SDS011;37732;53.106;7.030;2023-08-06T03:15:12;17.02;;;15.32;;
51654;SDS011;37732;53.106;7.030;2023-08-06T03:17:42;12.13;;;10.93;;
51654;SDS011;37732;53.106;7.030;2023-08-06T03:20:10;11.65;;;10.48;;
51654;SDS011;37732;53.106;7.030;2023-08-06T03:22:36;11.80;;;10.60;;
51654;SDS011;37732;53.106;7.030;2023-08-06T03:25:03;15.63;;;14.10;;
51654;SDS011;37732;53.106;7.030;2023-08-06T03:27:30;17.20;;;13.80;;
51654;SDS011;37732;53.106;7.030;2023-08-06T03:29:56;12.93;;;11.15;;
51654;SDS011;37732;53.106;7.030;2023-08-06T03:32:24;13.13;;;11.32;;
51654;SDS011;37732;53.106;7.030;2023-08-06T03:34:50;13.82;;;11.05;;
51654;SDS011;37732;53.106;7.030;2023-08-06T03:37:16;11.95;;;10.65;;
51654;SDS011;37732;53.106;7.030;2023-08-06T03:39:42;15.60;;;13.98;;
51654;SDS011;37732;53.106;7.030;2023-08-06T03:42:09;11.77;;;10.57;;
51654;SDS011;37732;53.106;7.030;2023-08-06T03:44:36;12.88;;;11.45;;
51654;SDS011;37732;53.106;7.030;2023-08-06T03:47:03;12.65;;;10.98;;
51654;SDS011;37732;53.106;7.030;2023-08-06T03:49:30;15.45;;;10.55;;
51654;SDS011;37732;53.106;7.030;2023-08-06T03:51:58;12.75;;;11.45;;
51654;SDS011;37732;53.106;7.030;2023-08-06T03:54:25;14.07;;;11.57;;
51654;SDS011;37732;53.106;7.030;2023-08-06T03:56:51;17.58;;;15.10;;
51654;SDS011;37732;53.106;7.030;2023-08-06T03:59:17;13.10;;;11.60;;
51654;SDS011;37732;53.106;7.030;2023-08-06T04:01:47;14.63;;;12.20;;
51654;SDS011;37732;53.106;7.030;2023-08-06T04:04:14;11.95;;;10.75;;
51654;SDS011;37732;53.106;7.030;2023-08-06T04:06:41;13.80;;;11.45;;
51654;SDS011;37732;53.106;7.030;2023-08-06T04:09:08;13.13;;;10.80;;
51654;SDS011;37732;53.106;7.030;2023-08-06T04:11:35;14.63;;;12.00;;
51654;SDS011;37732;53.106;7.030;2023-08-06T04:14:03;12.20;;;10.95;;
51654;SDS011;37732;53.106;7.030;2023-08-06T04:16:30;11.63;;;10.50;;
51654;SDS011;37732;53.106;7.030;2023-08-06T04:18:58;12.75;;;10.95;;
51654;SDS011;37732;53.106;7.030;2023-08-06T04:21:24;14.52;;;13.00;;
51654;SDS011;37732;53.106;7.030;2023-08-06T04:23:51;12.13;;;10.95;;
51654;SDS011;37732;53.106;7.030;2023-08-06T04:26:17;15.75;;;14.15;;
51654;SDS011;37732;53.106;7.030;2023-08-06T04:28:43;13.63;;;12.20;;
51654;SDS011;37732;53.106;7.030;2023-08-06T04:31:09;13.55;;;11.73;;
51654;SDS011;37732;53.106;7.030;2023-08-06T04:33:35;14.32;;;12.88;;
51654;SDS011;37732;53.106;7.030;2023-08-06T04:36:01;11.73;;;10.32;;
51654;SDS011;37732;53.106;7.030;2023-08-06T04:38:28;11.73;;;10.27;;
51654;SDS011;37732;53.106;7.030;2023-08-06T04:40:55;11.40;;;10.07;;
51654;SDS011;37732;53.106;7.030;2023-08-06T04:43:21;14.63;;;12.60;;
51654;SDS011;37732;53.106;7.030;2023-08-06T04:45:53;12.35;;;11.05;;
51654;SDS011;37732;53.106;7.030;2023-08-06T04:48:19;11.85;;;10.65;;
51654;SDS011;37732;53.106;7.030;2023-08-06T04:50:46;11.18;;;10.00;;
51654;SDS011;37732;53.106;7.030;2023-08-06T04:53:12;14.23;;;12.77;;
51654;SDS011;37732;53.106;7.030;2023-08-06T04:55:39;11.18;;;10.05;;
51654;SDS011;37732;53.106;7.030;2023-08-06T04:58:05;14.00;;;12.20;;
51654;SDS011;37732;53.106;7.030;2023-08-06T05:00:33;12.18;;;10.82;;
51654;SDS011;37732;53.106;7.030;2023-08-06T05:02:59;13.93;;;11.77;;
51654;SDS011;37732;53.106;7.030;2023-08-06T05:05:26;14.07;;;12.60;;
51654;SDS011;37732;53.106;7.030;2023-08-06T05:07:53;12.52;;;10.98;;
51654;SDS011;37732;53.106;7.030;2023-08-06T05:10:24;11.80;;;9.68;;
51654;SDS011;37732;53.106;7.030;2023-08-06T05:12:51;10.48;;;9.38;;
51654;SDS011;37732;53.106;7.030;2023-08-06T05:15:17;12.23;;;9.77;;
51654;SDS011;37732;53.106;7.030;2023-08-06T05:17:44;10.40;;;9.40;;
51654;SDS011;37732;53.106;7.030;2023-08-06T05:20:11;12.48;;;11.15;;
51654;SDS011;37732;53.106;7.030;2023-08-06T05:22:38;11.10;;;9.98;;
51654;SDS011;37732;53.106;7.030;2023-08-06T05:25:05;10.30;;;9.18;;
51654;SDS011;37732;53.106;7.030;2023-08-06T05:27:32;11.73;;;9.43;;
51654;SDS011;37732;53.106;7.030;2023-08-06T05:30:00;11.10;;;9.93;;
51654;SDS011;37732;53.106;7.030;2023-08-06T05:32:27;13.35;;;11.95;;
51654;SDS011;37732;53.106;7.030;2023-08-06T05:34:54;10.45;;;9.30;;
51654;SDS011;37732;53.106;7.030;2023-08-06T05:37:20;14.35;;;10.32;;
51654;SDS011;37732;53.106;7.030;2023-08-06T05:39:49;11.98;;;10.50;;
51654;SDS011;37732;53.106;7.030;2023-08-06T05:42:16;10.38;;;9.27;;
51654;SDS011;37732;53.106;7.030;2023-08-06T05:44:43;10.82;;;9.00;;
51654;SDS011;37732;53.106;7.030;2023-08-06T05:47:10;11.35;;;10.15;;
51654;SDS011;37732;53.106;7.030;2023-08-06T05:49:37;16.52;;;10.60;;
51654;SDS011;37732;53.106;7.030;2023-08-06T05:52:06;10.57;;;9.57;;
51654;SDS011;37732;53.106;7.030;2023-08-06T05:54:33;14.50;;;10.60;;
51654;SDS011;37732;53.106;7.030;2023-08-06T05:56:59;10.90;;;9.88;;
51654;SDS011;37732;53.106;7.030;2023-08-06T05:59:26;11.55;;;9.93;;
51654;SDS011;37732;53.106;7.030;2023-08-06T06:01:52;10.82;;;9.48;;
51654;SDS011;37732;53.106;7.030;2023-08-06T06:04:20;11.82;;;10.63;;
51654;SDS011;37732;53.106;7.030;2023-08-06T06:06:47;10.77;;;9.20;;
51654;SDS011;37732;53.106;7.030;2023-08-06T06:09:14;11.57;;;9.30;;
51654;SDS011;37732;53.106;7.030;2023-08-06T06:11:40;10.15;;;8.60;;
51654;SDS011;37732;53.106;7.030;2023-08-06T06:14:07;11.70;;;10.50;;
51654;SDS011;37732;53.106;7.030;2023-08-06T06:16:34;11.82;;;10.18;;
51654;SDS011;37732;53.106;7.030;2023-08-06T06:19:00;14.98;;;9.98;;
51654;SDS011;37732;53.106;7.030;2023-08-06T06:21:26;11.10;;;9.35;;
51654;SDS011;37732;53.106;7.030;2023-08-06T06:23:53;11.18;;;10.05;;
51654;SDS011;37732;53.106;7.030;2023-08-06T06:26:19;13.27;;;10.57;;
51654;SDS011;37732;53.106;7.030;2023-08-06T06:28:47;9.80;;;8.80;;
51654;SDS011;37732;53.106;7.030;2023-08-06T06:31:15;10.80;;;9.52;;
51654;SDS011;37732;53.106;7.030;2023-08-06T06:33:44;10.82;;;9.52;;
51654;SDS011;37732;53.106;7.030;2023-08-06T06:36:10;11.70;;;9.85;;
51654;SDS011;37732;53.106;7.030;2023-08-06T06:38:37;12.50;;;11.07;;
51654;SDS011;37732;53.106;7.030;2023-08-06T06:41:03;12.02;;;10.40;;
51654;SDS011;37732;53.106;7.030;2023-08-06T06:43:31;10.90;;;9.73;;
51654;SDS011;37732;53.106;7.030;2023-08-06T06:45:59;10.55;;;9.45;;
51654;SDS011;37732;53.106;7.030;2023-08-06T06:48:26;11.18;;;10.07;;
51654;SDS011;37732;53.106;7.030;2023-08-06T06:50:53;11.88;;;8.57;;
51654;SDS011;37732;53.106;7.030;2023-08-06T06:53:19;10.38;;;9.38;;
51654;SDS011;37732;53.106;7.030;2023-08-06T06:55:47;9.98;;;9.02;;
51654;SDS011;37732;53.106;7.030;2023-08-06T06:58:15;11.35;;;10.25;;
51654;SDS011;37732;53.106;7.030;2023-08-06T07:00:41;11.75;;;10.55;;
51654;SDS011;37732;53.106;7.030;2023-08-06T07:03:08;10.50;;;8.85;;
51654;SDS011;37732;53.106;7.030;2023-08-06T07:05:35;12.88;;;11.63;;
51654;SDS011;37732;53.106;7.030;2023-08-06T07:08:01;11.88;;;10.68;;
51654;SDS011;37732;53.106;7.030;2023-08-06T07:10:30;11.10;;;9.88;;
51654;SDS011;37732;53.106;7.030;2023-08-06T07:12:57;11.57;;;10.48;;
51654;SDS011;37732;53.106;7.030;2023-08-06T07:15:23;10.80;;;9.75;;
51654;SDS011;37732;53.106;7.030;2023-08-06T07:17:50;11.07;;;9.82;;
51654;SDS011;37732;53.106;7.030;2023-08-06T07:20:17;11.98;;;10.88;;
51654;SDS011;37732;53.106;7.030;2023-08-06T07:22:44;11.13;;;9.48;;
51654;SDS011;37732;53.106;7.030;2023-08-06T07:25:10;12.20;;;10.75;;
51654;SDS011;37732;53.106;7.030;2023-08-06T07:27:37;13.48;;;10.38;;
51654;SDS011;37732;53.106;7.030;2023-08-06T07:30:03;11.10;;;10.00;;
51654;SDS011;37732;53.106;7.030;2023-08-06T07:32:31;11.13;;;10.05;;
51654;SDS011;37732;53.106;7.030;2023-08-06T07:34:57;12.02;;;10.82;;
51654;SDS011;37732;53.106;7.030;2023-08-06T07:37:26;12.18;;;9.30;;
51654;SDS011;37732;53.106;7.030;2023-08-06T07:39:54;11.00;;;9.75;;
51654;SDS011;37732;53.106;7.030;2023-08-06T07:42:21;10.82;;;9.82;;
51654;SDS011;37732;53.106;7.030;2023-08-06T07:44:54;11.07;;;9.95;;
51654;SDS011;37732;53.106;7.030;2023-08-06T07:47:22;11.48;;;10.27;;
51654;SDS011;37732;53.106;7.030;2023-08-06T07:49:50;11.23;;;10.02;;
51654;SDS011;37732;53.106;7.030;2023-08-06T07:52:18;10.90;;;9.80;;
51654;SDS011;37732;53.106;7.030;2023-08-06T07:54:48;10.30;;;9.32;;
51654;SDS011;37732;53.106;7.030;2023-08-06T07:57:15;13.15;;;11.98;;
51654;SDS011;37732;53.106;7.030;2023-08-06T07:59:41;11.48;;;10.38;;
51654;SDS011;37732;53.106;7.030;2023-08-06T08:02:08;12.38;;;11.07;;
51654;SDS011;37732;53.106;7.030;2023-08-06T08:04:36;11.93;;;10.82;;
51654;SDS011;37732;53.106;7.030;2023-08-06T08:07:03;11.50;;;10.30;;
51654;SDS011;37732;53.106;7.030;2023-08-06T08:09:30;10.82;;;9.55;;
51654;SDS011;37732;53.106;7.030;2023-08-06T08:11:57;10.63;;;9.27;;
51654;SDS011;37732;53.106;7.030;2023-08-06T08:14:26;11.93;;;10.23;;
51654;SDS011;37732;53.106;7.030;2023-08-06T08:16:52;9.57;;;7.95;;
51654;SDS011;37732;53.106;7.030;2023-08-06T08:19:19;9.27;;;8.18;;
51654;SDS011;37732;53.106;7.030;2023-08-06T08:21:47;8.77;;;7.82;;
51654;SDS011;37732;53.106;7.030;2023-08-06T08:24:14;8.88;;;7.22;;
51654;SDS011;37732;53.106;7.030;2023-08-06T08:26:40;8.40;;;7.55;;
51654;SDS011;37732;53.106;7.030;2023-08-06T08:29:08;8.88;;;7.63;;
51654;SDS011;37732;53.106;7.030;2023-08-06T08:31:37;9.13;;;7.03;;
51654;SDS011;37732;53.106;7.030;2023-08-06T08:34:06;9.10;;;6.05;;
51654;SDS011;37732;53.106;7.030;2023-08-06T08:36:32;7.43;;;6.28;;
51654;SDS011;37732;53.106;7.030;2023-08-06T08:38:58;7.53;;;5.57;;
51654;SDS011;37732;53.106;7.030;2023-08-06T08:41:28;8.23;;;5.95;;
51654;SDS011;37732;53.106;7.030;2023-08-06T08:43:55;7.00;;;5.95;;
51654;SDS011;37732;53.106;7.030;2023-08-06T08:46:22;7.63;;;5.30;;
51654;SDS011;37732;53.106;7.030;2023-08-06T08:48:50;6.88;;;5.30;;
51654;SDS011;37732;53.106;7.030;2023-08-06T08:51:17;7.28;;;5.70;;
51654;SDS011;37732;53.106;7.030;2023-08-06T08:53:45;6.00;;;4.78;;
51654;SDS011;37732;53.106;7.030;2023-08-06T08:56:14;6.55;;;4.53;;
51654;SDS011;37732;53.106;7.030;2023-08-06T08:58:41;5.57;;;4.90;;
51654;SDS011;37732;53.106;7.030;2023-08-06T09:01:08;7.93;;;4.45;;
51654;SDS011;37732;53.106;7.030;2023-08-06T09:03:36;10.30;;;4.55;;
51654;SDS011;37732;53.106;7.030;2023-08-06T09:06:04;6.03;;;4.55;;
51654;SDS011;37732;53.106;7.030;2023-08-06T09:08:34;7.10;;;3.90;;
51654;SDS011;37732;53.106;7.030;2023-08-06T09:11:01;5.35;;;3.72;;
51654;SDS011;37732;53.106;7.030;2023-08-06T09:13:33;4.68;;;3.00;;
51654;SDS011;37732;53.106;7.030;2023-08-06T09:16:00;8.70;;;3.60;;
51654;SDS011;37732;53.106;7.030;2023-08-06T09:18:29;4.80;;;2.80;;
51654;SDS011;37732;53.106;7.030;2023-08-06T09:20:56;4.85;;;3.00;;
51654;SDS011;37732;53.106;7.030;2023-08-06T09:23:30;3.70;;;2.28;;
51654;SDS011;37732;53.106;7.030;2023-08-06T09:25:58;5.53;;;2.63;;
51654;SDS011;37732;53.106;7.030;2023-08-06T09:28:36;3.33;;;2.08;;
51654;SDS011;37732;53.106;7.030;2023-08-06T09:31:05;3.90;;;2.10;;
51654;SDS011;37732;53.106;7.030;2023-08-06T09:33:31;3.95;;;2.20;;
51654;SDS011;37732;53.106;7.030;2023-08-06T09:35:59;6.78;;;2.30;;
51654;SDS011;37732;53.106;7.030;2023-08-06T09:38:38;4.45;;;2.58;;
51654;SDS011;37732;53.106;7.030;2023-08-06T09:41:09;5.35;;;2.60;;
51654;SDS011;37732;53.106;7.030;2023-08-06T09:43:39;4.20;;;2.15;;
51654;SDS011;37732;53.106;7.030;2023-08-06T09:46:13;4.00;;;2.40;;
51654;SDS011;37732;53.106;7.030;2023-08-06T09:48:44;4.25;;;1.90;;
51654;SDS011;37732;53.106;7.030;2023-08-06T09:51:12;3.85;;;2.10;;
51654;SDS011;37732;53.106;7.030;2023-08-06T09:53:41;3.58;;;1.92;;
51654;SDS011;37732;53.106;7.030;2023-08-06T09:56:09;3.50;;;2.08;;
51654;SDS011;37732;53.106;7.030;2023-08-06T09:58:37;4.18;;;2.20;;
51654;SDS011;37732;53.106;7.030;2023-08-06T10:01:04;2.50;;;1.85;;
51654;SDS011;37732;53.106;7.030;2023-08-06T10:03:33;2.75;;;2.08;;
51654;SDS011;37732;53.106;7.030;2023-08-06T10:06:00;3.55;;;2.20;;
51654;SDS011;37732;53.106;7.030;2023-08-06T10:08:33;4.18;;;2.08;;
51654;SDS011;37732;53.106;7.030;2023-08-06T10:11:06;4.75;;;2.10;;
51654;SDS011;37732;53.106;7.030;2023-08-06T10:13:32;2.72;;;1.95;;
51654;SDS011;37732;53.106;7.030;2023-08-06T10:16:00;4.10;;;2.50;;
51654;SDS011;37732;53.106;7.030;2023-08-06T10:18:28;6.35;;;2.95;;
51654;SDS011;37732;53.106;7.030;2023-08-06T10:20:54;5.63;;;2.03;;
51654;SDS011;37732;53.106;7.030;2023-08-06T10:23:21;2.97;;;2.03;;
51654;SDS011;37732;53.106;7.030;2023-08-06T10:26:01;3.30;;;2.03;;
51654;SDS011;37732;53.106;7.030;2023-08-06T10:28:36;5.70;;;2.30;;
51654;SDS011;37732;53.106;7.030;2023-08-06T10:31:03;4.65;;;2.13;;
51654;SDS011;37732;53.106;7.030;2023-08-06T10:33:50;4.03;;;2.22;;
51654;SDS011;37732;53.106;7.030;2023-08-06T10:36:17;5.28;;;2.58;;
51654;SDS011;37732;53.106;7.030;2023-08-06T10:38:45;5.43;;;2.40;;
51654;SDS011;37732;53.106;7.030;2023-08-06T10:41:28;3.10;;;2.25;;
51654;SDS011;37732;53.106;7.030;2023-08-06T10:44:08;3.45;;;2.25;;
51654;SDS011;37732;53.106;7.030;2023-08-06T10:46:35;4.93;;;2.50;;
51654;SDS011;37732;53.106;7.030;2023-08-06T10:49:03;4.43;;;2.15;;
51654;SDS011;37732;53.106;7.030;2023-08-06T10:51:30;3.53;;;2.33;;
51654;SDS011;37732;53.106;7.030;2023-08-06T10:53:57;2.47;;;1.80;;
51654;SDS011;37732;53.106;7.030;2023-08-06T10:56:25;2.75;;;2.17;;
51654;SDS011;37732;53.106;7.030;2023-08-06T10:58:54;5.13;;;2.40;;
51654;SDS011;37732;53.106;7.030;2023-08-06T11:01:26;3.05;;;1.98;;
51654;SDS011;37732;53.106;7.030;2023-08-06T11:03:54;6.25;;;2.28;;
51654;SDS011;37732;53.106;7.030;2023-08-06T11:06:23;3.75;;;2.00;;
51654;SDS011;37732;53.106;7.030;2023-08-06T11:08:51;3.15;;;2.08;;
51654;SDS011;37732;53.106;7.030;2023-08-06T11:11:19;4.47;;;2.35;;
51654;SDS011;37732;53.106;7.030;2023-08-06T11:13:46;2.90;;;2.10;;
51654;SDS011;37732;53.106;7.030;2023-08-06T11:16:13;4.00;;;2.35;;
51654;SDS011;37732;53.106;7.030;2023-08-06T11:18:40;4.03;;;2.25;;
51654;SDS011;37732;53.106;7.030;2023-08-06T11:21:08;2.75;;;1.70;;
51654;SDS011;37732;53.106;7.030;2023-08-06T11:23:41;2.85;;;2.08;;
51654;SDS011;37732;53.106;7.030;2023-08-06T11:26:07;3.03;;;2.20;;
51654;SDS011;37732;53.106;7.030;2023-08-06T11:28:34;5.45;;;2.38;;
51654;SDS011;37732;53.106;7.030;2023-08-06T11:31:00;2.72;;;1.80;;
51654;SDS011;37732;53.106;7.030;2023-08-06T11:33:29;2.78;;;2.03;;
51654;SDS011;37732;53.106;7.030;2023-08-06T11:35:58;2.83;;;1.80;;
51654;SDS011;37732;53.106;7.030;2023-08-06T11:38:26;5.13;;;2.60;;
51654;SDS011;37732;53.106;7.030;2023-08-06T11:40:53;3.22;;;2.00;;
51654;SDS011;37732;53.106;7.030;2023-08-06T11:43:24;3.58;;;1.92;;
51654;SDS011;37732;53.106;7.030;2023-08-06T11:45:51;4.15;;;1.95;;
51654;SDS011;37732;53.106;7.030;2023-08-06T11:48:20;3.17;;;2.10;;
51654;SDS011;37732;53.106;7.030;2023-08-06T11:50:46;4.40;;;2.20;;
51654;SDS011;37732;53.106;7.030;2023-08-06T11:53:14;3.75;;;2.13;;
51654;SDS011;37732;53.106;7.030;2023-08-06T11:55:41;3.63;;;2.15;;
51654;SDS011;37732;53.106;7.030;2023-08-06T11:58:09;4.25;;;2.42;;
51654;SDS011;37732;53.106;7.030;2023-08-06T12:00:37;7.28;;;2.50;;
51654;SDS011;37732;53.106;7.030;2023-08-06T12:03:04;3.60;;;2.25;;
51654;SDS011;37732;53.106;7.030;2023-08-06T12:05:31;2.42;;;1.70;;
51654;SDS011;37732;53.106;7.030;2023-08-06T12:08:06;2.97;;;1.90;;
51654;SDS011;37732;53.106;7.030;2023-08-06T12:10:35;3.05;;;1.90;;
51654;SDS011;37732;53.106;7.030;2023-08-06T12:13:01;4.13;;;2.20;;
51654;SDS011;37732;53.106;7.030;2023-08-06T12:15:28;3.15;;;2.20;;
51654;SDS011;37732;53.106;7.030;2023-08-06T12:17:55;4.28;;;2.30;;
51654;SDS011;37732;53.106;7.030;2023-08-06T12:20:21;3.30;;;2.10;;
51654;SDS011;37732;53.106;7.030;2023-08-06T12:22:47;3.10;;;2.10;;
51654;SDS011;37732;53.106;7.030;2023-08-06T12:25:17;3.67;;;2.15;;
51654;SDS011;37732;53.106;7.030;2023-08-06T12:27:44;3.28;;;1.77;;
51654;SDS011;37732;53.106;7.030;2023-08-06T12:30:12;2.88;;;2.10;;
51654;SDS011;37732;53.106;7.030;2023-08-06T12:32:38;5.13;;;2.00;;
51654;SDS011;37732;53.106;7.030;2023-08-06T12:35:06;4.28;;;2.30;;
51654;SDS011;37732;53.106;7.030;2023-08-06T12:37:34;2.67;;;1.98;;
51654;SDS011;37732;53.106;7.030;2023-08-06T12:40:00;3.95;;;1.88;;
51654;SDS011;37732;53.106;7.030;2023-08-06T12:42:28;3.10;;;2.08;;
51654;SDS011;37732;53.106;7.030;2023-08-06T12:44:58;3.13;;;2.10;;
51654;SDS011;37732;53.106;7.030;2023-08-06T12:47:25;2.90;;;1.75;;
51654;SDS011;37732;53.106;7.030;2023-08-06T12:49:52;3.33;;;1.95;;
51654;SDS011;37732;53.106;7.030;2023-08-06T12:52:19;2.80;;;1.90;;
51654;SDS011;37732;53.106;7.030;2023-08-06T12:54:47;2.10;;;1.73;;
51654;SDS011;37732;53.106;7.030;2023-08-06T12:57:14;2.35;;;1.83;;
51654;SDS011;37732;53.106;7.030;2023-08-06T12:59:41;3.20;;;2.05;;
51654;SDS011;37732;53.106;7.030;2023-08-06T13:02:09;4.38;;;2.08;;
51654;SDS011;37732;53.106;7.030;2023-08-06T13:04:36;3.25;;;2.08;;
51654;SDS011;37732;53.106;7.030;2023-08-06T13:07:04;3.50;;;2.10;;
51654;SDS011;37732;53.106;7.030;2023-08-06T13:09:32;4.03;;;2.22;;
51654;SDS011;37732;53.106;7.030;2023-08-06T13:12:00;4.38;;;2.20;;
51654;SDS011;37732;53.106;7.030;2023-08-06T13:14:32;4.97;;;2.28;;
51654;SDS011;37732;53.106;7.030;2023-08-06T13:17:00;3.83;;;2.38;;
51654;SDS011;37732;53.106;7.030;2023-08-06T13:19:28;3.15;;;2.30;;
51654;SDS011;37732;53.106;7.030;2023-08-06T13:22:03;2.72;;;2.17;;
51654;SDS011;37732;53.106;7.030;2023-08-06T13:24:34;3.38;;;2.35;;
51654;SDS011;37732;53.106;7.030;2023-08-06T13:27:01;3.40;;;2.15;;
51654;SDS011;37732;53.106;7.030;2023-08-06T13:29:28;3.78;;;2.15;;
51654;SDS011;37732;53.106;7.030;2023-08-06T13:31:55;3.72;;;2.20;;
51654;SDS011;37732;53.106;7.030;2023-08-06T13:34:21;3.50;;;2.30;;
51654;SDS011;37732;53.106;7.030;2023-08-06T13:36:48;3.55;;;2.40;;
51654;SDS011;37732;53.106;7.030;2023-08-06T13:39:15;3.35;;;2.28;;
51654;SDS011;37732;53.106;7.030;2023-08-06T13:41:42;3.40;;;2.38;;
51654;SDS011;37732;53.106;7.030;2023-08-06T13:44:09;4.82;;;2.38;;
51654;SDS011;37732;53.106;7.030;2023-08-06T13:46:36;3.45;;;2.10;;
51654;SDS011;37732;53.106;7.030;2023-08-06T13:49:03;3.90;;;2.22;;
51654;SDS011;37732;53.106;7.030;2023-08-06T13:51:30;3.90;;;2.10;;
51654;SDS011;37732;53.106;7.030;2023-08-06T13:53:57;4.32;;;2.20;;
51654;SDS011;37732;53.106;7.030;2023-08-06T13:56:25;3.60;;;2.20;;
51654;SDS011;37732;53.106;7.030;2023-08-06T13:58:52;6.30;;;2.03;;
51654;SDS011;37732;53.106;7.030;2023-08-06T14:01:20;3.08;;;2.08;;
51654;SDS011;37732;53.106;7.030;2023-08-06T14:03:47;4.85;;;2.47;;
51654;SDS011;37732;53.106;7.030;2023-08-06T14:06:14;3.47;;;2.20;;
51654;SDS011;37732;53.106;7.030;2023-08-06T14:08:43;5.32;;;2.17;;
51654;SDS011;37732;53.106;7.030;2023-08-06T14:11:10;4.32;;;2.10;;
51654;SDS011;37732;53.106;7.030;2023-08-06T14:13:36;3.50;;;2.20;;
51654;SDS011;37732;53.106;7.030;2023-08-06T14:16:04;3.88;;;2.20;;
51654;SDS011;37732;53.106;7.030;2023-08-06T14:18:31;6.75;;;2.50;;
51654;SDS011;37732;53.106;7.030;2023-08-06T14:20:59;3.50;;;2.20;;
51654;SDS011;37732;53.106;7.030;2023-08-06T14:23:26;4.07;;;2.17;;
51654;SDS011;37732;53.106;7.030;2023-08-06T14:25:52;2.70;;;1.90;;
51654;SDS011;37732;53.106;7.030;2023-08-06T14:28:23;4.57;;;2.22;;
51654;SDS011;37732;53.106;7.030;2023-08-06T14:30:50;3.22;;;2.08;;
51654;SDS011;37732;53.106;7.030;2023-08-06T14:33:17;3.13;;;2.20;;
51654;SDS011;37732;53.106;7.030;2023-08-06T14:35:44;3.28;;;2.17;;
51654;SDS011;37732;53.106;7.030;2023-08-06T14:38:11;3.90;;;2.00;;
51654;SDS011;37732;53.106;7.030;2023-08-06T14:40:39;2.83;;;2.17;;
51654;SDS011;37732;53.106;7.030;2023-08-06T14:43:06;4.22;;;2.50;;
51654;SDS011;37732;53.106;7.030;2023-08-06T14:45:33;3.22;;;1.95;;